createdAt,value
2022-12-13T02:15:19.854Z,98944.23
2022-12-13T02:16:28.877Z,98939.23
2022-12-13T02:17:54.162Z,98941.70
2022-12-13T02:19:20.470Z,98941.61
2022-12-13T02:20:50.111Z,98940.70
2022-12-13T02:23:30.344Z,98938.66
2022-12-13T02:24:45.017Z,98934.17
2022-12-13T02:26:13.451Z,98939.13
2022-12-13T02:27:42.855Z,98933.83
2022-12-13T02:29:07.882Z,98937.86
2022-12-13T02:30:20.052Z,98931.59
2022-12-13T02:31:31.981Z,98936.89
2022-12-13T02:32:37.654Z,98934.30
2022-12-13T02:33:49.400Z,98933.47
2022-12-13T02:35:12.951Z,98936.61
2022-12-13T02:36:28.372Z,98936.50
2022-12-13T02:37:39.013Z,98942.48
2022-12-13T02:38:47.830Z,98932.91
2022-12-13T02:40:14.903Z,98934.44
2022-12-13T02:41:29.514Z,98937.76
2022-12-13T02:42:35.149Z,98944.45
2022-12-13T02:43:45.677Z,98948.59
2022-12-13T02:44:49.072Z,98943.41
2022-12-13T02:45:54.650Z,98942.53
2022-12-13T02:47:03.256Z,98949.23
2022-12-13T02:48:10.021Z,98950.88
2022-12-13T02:49:13.847Z,98959.48
2022-12-13T02:50:16.212Z,98953.44
2022-12-13T02:51:20.433Z,98951.00
2022-12-13T02:52:25.923Z,98953.69
2022-12-13T02:53:29.198Z,98954.55
2022-12-13T02:54:33.157Z,98943.70
2022-12-13T02:55:40.442Z,98947.88
2022-12-13T02:56:44.516Z,98952.18
2022-12-13T02:57:46.481Z,98948.98
2022-12-13T02:58:51.891Z,98949.09
2022-12-13T02:59:54.403Z,98952.33
2022-12-13T03:01:28.950Z,98952.47
2022-12-13T03:02:31.317Z,98951.53
2022-12-13T03:03:54.727Z,98959.36
2022-12-13T03:05:01.168Z,98953.34
2022-12-13T03:06:36.255Z,98958.56
2022-12-13T03:07:45.643Z,98960.30
2022-12-13T03:08:57.598Z,98963.75
2022-12-13T03:10:14.362Z,98967.11
2022-12-13T03:11:19.408Z,98956.91
2022-12-13T03:12:34.664Z,98965.41
2022-12-13T03:13:56.701Z,98965.37
2022-12-13T03:15:02.262Z,98968.88
2022-12-13T03:16:11.404Z,98970.42
2022-12-13T03:17:17.171Z,98964.48
2022-12-13T03:18:21.699Z,98972.08
2022-12-13T03:19:24.305Z,98968.52
2022-12-13T03:20:29.198Z,98968.52
2022-12-13T03:21:47.007Z,98960.88
2022-12-13T03:22:43.994Z,98962.53
2022-12-13T03:23:46.325Z,98961.40
2022-12-13T03:24:49.395Z,98961.40
2022-12-13T03:25:57.786Z,98966.36
2022-12-13T03:27:00.182Z,98963.69
2022-12-13T03:28:02.902Z,98952.58
2022-12-13T03:29:05.685Z,98958.45
2022-12-13T03:30:08.605Z,98952.62
2022-12-13T03:31:10.641Z,98955.17
2022-12-13T03:32:12.512Z,98952.50
2022-12-13T03:33:14.362Z,98944.03
2022-12-13T03:34:22.652Z,98945.17
2022-12-13T03:35:21.881Z,98942.88
2022-12-13T03:36:24.424Z,98939.56
2022-12-13T03:37:27.123Z,98951.06
2022-12-13T03:38:30.665Z,98948.33
2022-12-13T03:39:32.722Z,98951.06
2022-12-13T03:40:35.249Z,98949.55
2022-12-13T03:41:37.557Z,98940.41
2022-12-13T03:42:39.723Z,98943.96
2022-12-13T03:43:42.340Z,98941.56
2022-12-13T03:44:44.329Z,98943.99
2022-12-13T03:45:45.985Z,98933.53
2022-12-13T03:46:47.885Z,98933.53
2022-12-13T03:47:49.672Z,98944.42
2022-12-13T03:48:51.491Z,98946.05
2022-12-13T03:49:54.149Z,98946.78
2022-12-13T03:50:56.812Z,98946.63
2022-12-13T03:51:59.026Z,98934.37
2022-12-13T03:53:02.681Z,98934.37
2022-12-13T03:54:04.711Z,98942.65
2022-12-13T03:55:07.427Z,98939.97
2022-12-13T03:56:09.777Z,98937.30
2022-12-13T03:57:11.738Z,98947.45
2022-12-13T03:58:15.574Z,98936.26
2022-12-13T03:59:19.191Z,98934.41
2022-12-13T04:00:21.777Z,98929.27
2022-12-13T04:01:24.908Z,98925.02
2022-12-13T04:02:31.024Z,98918.08
2022-12-13T04:03:32.764Z,98923.16
2022-12-13T04:04:35.627Z,98925.68
2022-12-13T04:05:37.444Z,98925.72
2022-12-13T04:06:39.275Z,98930.77
2022-12-13T04:07:41.090Z,98935.97
2022-12-13T04:08:45.187Z,98926.46
2022-12-13T04:09:47.161Z,98929.85
2022-12-13T04:10:49.066Z,98929.80
2022-12-13T04:11:50.873Z,98933.97
2022-12-13T04:12:53.712Z,98938.97
2022-12-13T04:13:57.587Z,98941.40
2022-12-13T04:14:59.228Z,98930.62
2022-12-13T04:16:02.723Z,98930.62
2022-12-13T04:17:05.034Z,98945.14
2022-12-13T04:18:06.808Z,98940.02
2022-12-13T04:19:08.676Z,98943.57
2022-12-13T04:20:11.210Z,98936.63
2022-12-13T04:21:13.009Z,98944.31
2022-12-13T04:22:16.153Z,98945.02
2022-12-13T04:23:18.597Z,98941.62
2022-12-13T04:25:32.845Z,98940.44
2022-12-13T04:26:34.635Z,98941.53
2022-12-13T04:27:36.476Z,98936.45
2022-12-13T04:28:38.444Z,98940.66
2022-12-13T04:29:40.233Z,98945.00
2022-12-13T04:30:42.113Z,98941.53
2022-12-13T04:31:44.023Z,98944.96
2022-12-13T04:32:46.143Z,98933.20
2022-12-13T04:33:47.902Z,98937.41
2022-12-13T04:34:49.829Z,98934.02
2022-12-13T04:35:51.824Z,98932.23
2022-12-13T04:36:53.981Z,98937.45
2022-12-13T04:37:55.746Z,98937.31
2022-12-13T04:39:00.670Z,98936.41
2022-12-13T04:40:03.540Z,98938.88
2022-12-13T04:41:12.407Z,98934.58
2022-12-13T04:42:14.445Z,98931.14
2022-12-13T04:43:16.273Z,98926.81
2022-12-13T04:44:29.126Z,98930.15
2022-12-13T04:45:23.115Z,98934.39
2022-12-13T04:46:25.133Z,98930.14
2022-12-13T04:47:26.961Z,98931.70
2022-12-13T04:48:30.837Z,98935.92
2022-12-13T04:49:33.252Z,98941.31
2022-12-13T04:50:35.357Z,98948.31
2022-12-13T04:51:37.446Z,98946.66
2022-12-13T04:52:39.357Z,98942.48
2022-12-13T04:54:57.378Z,98937.41
2022-12-13T04:56:02.336Z,98934.89
2022-12-13T04:57:10.206Z,98936.58
2022-12-13T04:58:12.148Z,98935.84
2022-12-13T04:59:14.225Z,98934.27
2022-12-13T05:00:16.451Z,98934.19
2022-12-13T05:01:18.410Z,98935.14
2022-12-13T05:02:24.146Z,98938.45
2022-12-13T05:03:24.006Z,98932.45
2022-12-13T05:04:32.144Z,98938.41
2022-12-13T05:05:29.674Z,98940.09
2022-12-13T05:06:32.134Z,98945.09
2022-12-13T05:07:33.951Z,98949.95
2022-12-13T05:08:36.702Z,98946.66
2022-12-13T05:09:38.669Z,98947.61
2022-12-13T05:10:40.594Z,98950.13
2022-12-13T05:11:45.453Z,98951.83
2022-12-13T05:12:46.191Z,98956.99
2022-12-13T05:13:48.061Z,98949.30
2022-12-13T05:14:52.493Z,98955.34
2022-12-13T05:15:59.537Z,98961.38
2022-12-13T05:17:01.855Z,98955.39
2022-12-13T05:18:09.793Z,98954.61
2022-12-13T05:19:10.234Z,98955.80
2022-12-13T05:20:12.424Z,98959.43
2022-12-13T05:21:14.164Z,98953.36
2022-12-13T05:22:20.263Z,98953.36
2022-12-13T05:23:23.166Z,98967.74
2022-12-13T05:24:25.259Z,98964.31
2022-12-13T05:25:27.264Z,98968.49
2022-12-13T05:26:29.455Z,98973.14
2022-12-13T05:27:32.085Z,98967.31
2022-12-13T05:28:34.284Z,98967.31
2022-12-13T05:29:37.585Z,98978.23
2022-12-13T05:30:41.035Z,98971.53
2022-12-13T05:31:44.254Z,98970.96
2022-12-13T05:32:46.410Z,98979.04
2022-12-13T05:33:48.548Z,98978.17
2022-12-13T05:34:52.807Z,98978.00
2022-12-13T05:36:00.016Z,98963.31
2022-12-13T05:36:59.719Z,98968.48
2022-12-13T05:38:02.317Z,98967.11
2022-12-13T05:39:04.299Z,98971.64
2022-12-13T05:40:07.951Z,98969.88
2022-12-13T05:41:17.126Z,98963.36
2022-12-13T05:42:21.463Z,98967.01
2022-12-13T05:43:24.086Z,98967.96
2022-12-13T05:44:27.987Z,98970.58
2022-12-13T05:45:31.962Z,98975.06
2022-12-13T05:46:41.315Z,98976.77
2022-12-13T05:47:40.217Z,98978.65
2022-12-13T05:48:42.298Z,98978.70
2022-12-13T05:49:44.315Z,98978.73
2022-12-13T05:50:46.777Z,98987.26
2022-12-13T05:51:49.119Z,98978.67
2022-12-13T05:52:52.150Z,98982.13
2022-12-13T05:53:54.131Z,98977.12
2022-12-13T05:54:56.058Z,98972.81
2022-12-13T05:56:02.252Z,98972.11
2022-12-13T05:57:04.124Z,98960.25
2022-12-13T05:58:05.858Z,98962.67
2022-12-13T05:59:11.545Z,98965.98
2022-12-13T06:00:30.197Z,98957.31
2022-12-13T06:01:18.665Z,98963.06
2022-12-13T06:02:21.852Z,98959.70
2022-12-13T06:03:24.088Z,98961.34
2022-12-13T06:04:26.055Z,98957.02
2022-12-13T06:05:31.323Z,98954.41
2022-12-13T06:06:33.355Z,98959.40
2022-12-13T06:07:35.767Z,98962.56
2022-12-13T06:08:39.418Z,98967.42
2022-12-13T06:09:42.430Z,98969.81
2022-12-13T06:10:44.544Z,98970.77
2022-12-13T06:11:47.021Z,98971.91
2022-12-13T06:12:49.509Z,98972.77
2022-12-13T06:13:51.611Z,98975.19
2022-12-13T06:14:53.336Z,98976.19
2022-12-13T06:16:03.322Z,98980.34
2022-12-13T06:17:05.280Z,98976.09
2022-12-13T06:18:07.089Z,98973.56
2022-12-13T06:19:08.755Z,98979.52
2022-12-13T06:20:23.157Z,98974.45
2022-12-13T06:21:15.589Z,98977.78
2022-12-13T06:22:18.030Z,98971.87
2022-12-13T06:23:19.963Z,98971.87
2022-12-13T06:24:23.207Z,98969.34
2022-12-13T06:25:31.064Z,98970.20
2022-12-13T06:26:28.994Z,98967.58
2022-12-13T06:27:30.752Z,98972.60
2022-12-13T06:28:32.690Z,98970.81
2022-12-13T06:29:34.830Z,98977.65
2022-12-13T06:30:36.750Z,98977.45
2022-12-13T10:45:24.210Z,98984.23
2022-12-13T10:46:27.427Z,98986.98
2022-12-13T10:47:29.496Z,98976.67
2022-12-13T10:48:38.470Z,98969.78
2022-12-13T10:49:59.018Z,98969.78
2022-12-13T10:51:13.091Z,98964.48
2022-12-13T10:52:34.127Z,98962.47
2022-12-13T10:53:47.357Z,98955.75
2022-12-13T10:55:01.587Z,98955.82
2022-12-13T10:56:02.662Z,98956.84
2022-12-13T10:57:10.077Z,98958.69
2022-12-13T10:58:15.707Z,98953.61
2022-12-13T10:59:24.766Z,98957.55
2022-12-13T11:00:35.542Z,98960.64
2022-12-13T11:01:40.091Z,98958.91
2022-12-13T11:02:49.294Z,98949.64
2022-12-13T11:04:05.148Z,98952.69
2022-12-13T11:05:29.528Z,98956.80
2022-12-13T11:06:43.944Z,98954.45
2022-12-13T11:07:46.428Z,98957.77
2022-12-13T11:08:49.764Z,98956.66
2022-12-13T11:09:52.617Z,98960.41
2022-12-13T11:11:04.264Z,98968.73
2022-12-13T11:12:19.090Z,98959.18
2022-12-13T11:13:38.108Z,98967.25
2022-12-13T11:14:49.428Z,98958.81
2022-12-13T11:15:55.333Z,98961.44
2022-12-13T11:17:02.023Z,98956.75
2022-12-13T11:18:07.678Z,98959.46
2022-12-13T11:19:19.418Z,98949.97
2022-12-13T11:20:25.121Z,98948.49
2022-12-13T11:21:31.216Z,98953.42
2022-12-13T11:22:38.503Z,98957.42
2022-12-13T11:23:44.830Z,98951.44
2022-12-13T11:24:50.261Z,98955.82
2022-12-13T11:25:58.445Z,98957.05
2022-12-13T11:27:07.027Z,98948.44
2022-12-13T11:28:34.991Z,98949.94
2022-12-13T11:29:43.017Z,98952.50
2022-12-13T11:31:09.722Z,98956.04
2022-12-13T11:32:23.853Z,98952.74
2022-12-13T11:33:53.610Z,98953.58
2022-12-13T11:35:12.092Z,98946.15
2022-12-13T11:36:34.396Z,98954.67
2022-12-13T11:37:42.444Z,98960.77
2022-12-13T11:39:05.051Z,98948.87
2022-12-13T11:40:14.799Z,98953.20
2022-12-13T11:41:36.246Z,98955.03
2022-12-13T11:42:47.854Z,98953.26
2022-12-13T11:44:04.350Z,98958.18
2022-12-13T11:45:30.862Z,98951.31
2022-12-13T11:46:51.726Z,98958.98
2022-12-13T11:48:17.242Z,98955.53
2022-12-13T11:49:25.714Z,98957.92
2022-12-13T11:50:37.578Z,98950.28
2022-12-13T11:51:52.704Z,98956.20
2022-12-13T11:53:01.249Z,98947.90
2022-12-13T11:54:07.419Z,98948.61
2022-12-13T11:55:13.403Z,98955.59
2022-12-13T11:56:28.138Z,98958.13
2022-12-13T11:57:41.066Z,98972.54
2022-12-13T11:59:08.578Z,98963.03
2022-12-13T12:00:13.020Z,98968.34
2022-12-13T12:01:23.421Z,98964.15
2022-12-13T12:02:29.061Z,98956.59
2022-12-13T12:03:45.184Z,98959.26
2022-12-13T12:05:00.789Z,98963.51
2022-12-13T12:07:33.253Z,98949.84
2022-12-13T12:08:38.785Z,98958.45
2022-12-13T12:09:53.007Z,98955.92
2022-12-13T12:10:58.987Z,98959.34
2022-12-13T12:12:09.022Z,98963.69
2022-12-13T12:13:20.004Z,98961.27
2022-12-13T12:14:28.799Z,98970.71
2022-12-13T12:15:41.469Z,98968.92
2022-12-13T12:17:53.800Z,98963.56
2022-12-13T12:19:01.463Z,98967.05
2022-12-13T12:20:02.635Z,98969.61
2022-12-13T12:21:13.963Z,98968.80
2022-12-13T12:22:28.854Z,98973.28
2022-12-13T12:23:54.199Z,98975.84
2022-12-13T12:25:31.452Z,98969.98
2022-12-13T12:26:42.767Z,98962.28
2022-12-13T12:27:50.621Z,98958.96
2022-12-13T12:29:14.046Z,98962.19
2022-12-13T12:30:23.419Z,98977.52
2022-12-13T12:31:31.265Z,98965.77
2022-12-13T12:32:52.478Z,98969.28
2022-12-13T12:34:17.678Z,98965.83
2022-12-13T12:35:48.059Z,98963.91
2022-12-13T12:37:10.614Z,98972.48
2022-12-13T12:38:26.170Z,98966.63
2022-12-13T12:39:45.701Z,98968.58
2022-12-13T12:41:24.788Z,98964.27
2022-12-13T12:43:14.328Z,98975.28
2022-12-13T12:44:20.826Z,98977.86
2022-12-13T12:45:55.285Z,98970.05
2022-12-13T12:47:09.929Z,98969.17
2022-12-13T12:49:41.685Z,98970.94
2022-12-13T12:50:52.371Z,98969.36
2022-12-13T12:52:10.616Z,98968.64
2022-12-13T12:53:31.455Z,98961.75
2022-12-13T12:54:52.306Z,98960.79
2022-12-13T12:57:54.834Z,98957.51
2022-12-13T12:59:03.831Z,98961.04
2022-12-13T13:00:13.611Z,98966.09
2022-12-13T13:01:43.948Z,98954.09
2022-12-13T13:03:18.866Z,98954.95
2022-12-13T13:04:22.635Z,98962.63
2022-12-13T13:05:28.372Z,98967.78
2022-12-13T13:06:44.336Z,98957.63
2022-12-13T13:07:51.535Z,98972.92
2022-12-13T13:08:57.474Z,98956.97
2022-12-13T13:10:16.433Z,98965.50
2022-12-13T13:11:25.099Z,98952.84
2022-12-13T13:12:29.654Z,98958.73
2022-12-13T13:13:46.507Z,98949.33
2022-12-13T13:14:47.772Z,98962.15
2022-12-13T13:15:55.342Z,98957.80
2022-12-13T13:16:59.277Z,98960.31
2022-12-13T13:18:02.756Z,98960.40
2022-12-13T13:19:25.372Z,98954.53
2022-12-13T13:20:27.676Z,98949.40
2022-12-13T13:21:36.388Z,98949.39
2022-12-13T13:22:43.417Z,98955.38
2022-12-13T13:23:42.658Z,98966.33
2022-12-13T13:24:48.265Z,98965.48
2022-12-13T13:27:13.820Z,98957.77
2022-12-13T13:28:17.549Z,98961.94
2022-12-13T13:29:28.551Z,98952.66
2022-12-13T13:30:31.830Z,98972.29
2022-12-13T13:32:01.864Z,98964.83
2022-12-13T13:33:03.056Z,98952.94
2022-12-13T13:34:27.286Z,98957.11
2022-12-13T13:35:36.184Z,98954.45
2022-12-13T13:36:45.596Z,98957.87
2022-12-13T13:37:48.334Z,98951.09
2022-12-13T13:38:53.128Z,98946.86
2022-12-13T13:39:58.272Z,98947.72
2022-12-13T13:41:06.456Z,98947.72
2022-12-13T13:42:31.093Z,98947.70
2022-12-13T13:43:34.442Z,98960.50
2022-12-13T13:44:50.257Z,98946.12
2022-12-13T13:46:10.350Z,98952.01
2022-12-13T13:47:25.403Z,98954.48
2022-12-13T13:49:00.223Z,98940.58
2022-12-13T13:50:06.401Z,98963.63
2022-12-13T13:51:54.862Z,98943.25
2022-12-13T13:52:47.279Z,98945.90
2022-12-13T13:53:55.854Z,98946.80
2022-12-13T13:55:21.029Z,98959.55
2022-12-13T13:56:50.464Z,98948.52
2022-12-13T13:58:09.801Z,98954.59
2022-12-13T13:59:30.375Z,98950.34
2022-12-13T14:01:00.435Z,98947.67
2022-12-13T14:02:28.829Z,98953.66
2022-12-13T14:04:10.020Z,98945.08
2022-12-13T14:05:51.328Z,98956.01
2022-12-13T14:08:34.675Z,98949.91
2022-12-13T14:09:43.048Z,98950.63
2022-12-13T14:11:16.879Z,98953.95
2022-12-13T14:14:40.135Z,98962.39
2022-12-13T14:16:20.625Z,98959.09
2022-12-13T14:18:00.767Z,98955.84
2022-12-13T14:19:32.681Z,98954.05
2022-12-13T14:20:56.955Z,98954.31
2022-12-13T14:22:36.258Z,98957.56
2022-12-13T14:23:47.565Z,98948.22
2022-12-13T14:25:05.789Z,98955.02
2022-12-13T14:26:14.615Z,98959.16
2022-12-13T14:27:28.654Z,98966.92
2022-12-13T14:28:50.978Z,98960.04
2022-12-13T14:29:58.408Z,98967.68
2022-12-13T14:31:00.537Z,98959.20
2022-12-13T14:32:10.588Z,98957.59
2022-12-13T14:33:23.503Z,98968.69
2022-12-13T14:34:29.707Z,98966.33
2022-12-13T14:35:32.557Z,98971.36
2022-12-13T18:02:56.439Z,98985.02
2022-12-13T18:03:59.496Z,98984.92
2022-12-13T18:05:02.671Z,98990.08
2022-12-13T18:06:07.158Z,98990.03
2022-12-13T18:07:09.470Z,98998.53
2022-12-13T18:08:12.012Z,98976.34
2022-12-13T18:09:16.171Z,98992.45
2022-12-13T18:10:22.528Z,98990.76
2022-12-13T18:11:33.776Z,99001.86
2022-12-13T18:12:28.817Z,98991.67
2022-12-13T18:13:31.051Z,98991.67
2022-12-13T18:14:33.632Z,98998.41
2022-12-13T18:15:38.073Z,99004.41
2022-12-13T18:16:41.601Z,99001.08
2022-12-13T18:18:10.039Z,99001.92
2022-12-13T18:18:55.212Z,98989.91
2022-12-13T18:19:51.503Z,99001.86
2022-12-13T18:20:55.548Z,98994.19
2022-12-13T18:21:59.260Z,99002.67
2022-12-13T18:23:01.352Z,99006.92
2022-12-13T18:24:05.308Z,99015.58
2022-12-13T18:25:08.524Z,99008.73
2022-12-13T18:26:14.466Z,99022.34
2022-12-13T18:27:16.582Z,99008.73
2022-12-13T18:28:18.601Z,99027.44
2022-12-13T18:29:20.593Z,99012.98
2022-12-13T18:30:22.549Z,99013.05
2022-12-13T18:31:25.041Z,99011.33
2022-12-13T18:32:27.805Z,99005.38
2022-12-13T18:33:30.883Z,99015.63
2022-12-13T18:34:33.415Z,99022.44
2022-12-13T18:35:36.531Z,99030.99
2022-12-13T18:36:39.793Z,99015.75
2022-12-13T18:37:41.708Z,99011.44
2022-12-13T18:38:44.913Z,99016.45
2022-12-13T18:39:54.510Z,99022.38
2022-12-13T18:40:54.985Z,99015.63
2022-12-13T18:41:57.980Z,99036.91
2022-12-13T18:43:00.456Z,99039.44
2022-12-13T18:44:05.223Z,99032.67
2022-12-13T18:45:07.562Z,99026.69
2022-12-13T18:46:12.239Z,99023.23
2022-12-13T18:47:20.831Z,99024.09
2022-12-13T18:48:19.493Z,99038.61
2022-12-13T18:49:23.039Z,99022.48
2022-12-13T18:50:25.841Z,99023.31
2022-12-13T18:51:29.250Z,99023.31
2022-12-13T18:52:31.679Z,99016.52
2022-12-13T18:53:34.612Z,99042.02
2022-12-13T18:54:37.790Z,99049.77
2022-12-13T18:55:40.066Z,99019.97
2022-12-13T18:56:44.849Z,99024.22
2022-12-13T18:57:52.024Z,99050.54
2022-12-13T18:58:56.134Z,99044.67
2022-12-13T18:59:58.969Z,99039.53
2022-12-13T19:01:02.385Z,99048.07
2022-12-13T19:02:06.139Z,99037.88
2022-12-13T19:03:09.566Z,99039.55
2022-12-13T19:04:11.517Z,99033.59
2022-12-13T19:05:14.709Z,99036.09
2022-12-13T19:06:19.744Z,99044.52
2022-12-13T19:07:21.926Z,99040.31
2022-12-13T19:08:26.921Z,99049.69
2022-12-13T19:09:29.629Z,99056.49
2022-12-13T19:10:32.572Z,99046.27
2022-12-13T19:11:37.196Z,99047.17
2022-12-13T19:12:39.938Z,99063.29
2022-12-13T19:13:42.093Z,99042.97
2022-12-13T19:14:43.854Z,99039.52
2022-12-13T19:17:05.744Z,99042.80
2022-12-13T19:18:08.218Z,99046.23
2022-12-13T19:19:12.785Z,99045.34
2022-12-13T19:20:14.849Z,99049.59
2022-12-13T19:21:19.761Z,99045.22
2022-12-13T19:22:21.818Z,99053.69
2022-12-13T19:23:24.141Z,99048.65
2022-12-13T19:24:26.419Z,99051.21
2022-12-13T19:25:28.628Z,99057.15
2022-12-13T19:26:33.528Z,99062.28
2022-12-13T19:27:35.944Z,99061.38
2022-12-13T19:28:38.614Z,99061.50
2022-12-13T19:29:40.623Z,99069.91
2022-12-13T19:30:45.318Z,99066.59
2022-12-13T19:31:47.990Z,99074.19
2022-12-13T19:32:50.402Z,99077.66
2022-12-13T19:33:53.317Z,99064.98
2022-12-13T19:34:55.694Z,99071.83
2022-12-13T19:35:59.698Z,99076.95
2022-12-13T19:37:06.249Z,99068.43
2022-12-13T19:38:06.217Z,99070.05
2022-12-13T19:39:11.539Z,99081.14
2022-12-13T19:40:14.586Z,99078.63
2022-12-13T19:41:19.508Z,99080.33
2022-12-13T19:42:21.395Z,99074.41
2022-12-13T19:43:23.244Z,99085.54
2022-12-13T19:44:26.249Z,99085.59
2022-12-13T19:45:29.027Z,99082.19
2022-12-13T19:46:34.698Z,99099.20
2022-12-13T19:47:36.597Z,99092.45
2022-12-13T19:48:38.856Z,99094.17
2022-12-13T19:49:40.801Z,99090.80
2022-12-13T19:50:43.030Z,99075.49
2022-12-13T19:51:45.418Z,99090.80
2022-12-13T19:52:48.226Z,99100.16
2022-12-13T19:53:50.681Z,99095.05
2022-12-13T19:54:52.657Z,99087.45
2022-12-13T19:55:54.580Z,99088.30
2022-12-13T19:57:02.463Z,99079.83
2022-12-13T19:58:02.429Z,99090.85
2022-12-13T19:59:04.533Z,99090.86
2022-12-13T20:00:07.972Z,99120.58
2022-12-13T20:01:11.505Z,99107.84
2022-12-13T20:02:14.800Z,99100.22
2022-12-13T20:03:19.014Z,99118.01
2022-12-13T20:04:20.893Z,99095.16
2022-12-13T20:05:22.820Z,99087.48
2022-12-13T20:06:25.173Z,99104.44
2022-12-13T20:07:28.270Z,99101.07
2022-12-13T20:08:31.019Z,99089.19
2022-12-13T20:09:34.493Z,99102.78
2022-12-13T20:10:40.060Z,99100.24
2022-12-13T20:11:43.096Z,99114.66
2022-12-13T20:12:46.813Z,99097.70
2022-12-13T20:13:53.558Z,99095.16
2022-12-13T20:14:59.219Z,99114.67
2022-12-13T20:16:03.597Z,99118.05
2022-12-13T20:17:06.911Z,99138.43
2022-12-13T20:18:09.189Z,99102.78
2022-12-13T20:19:15.924Z,99111.27
2022-12-13T20:20:19.738Z,99110.42
2022-12-13T20:21:23.060Z,99118.06
2022-12-13T20:22:25.500Z,99108.73
2022-12-13T20:23:27.545Z,99121.44
2022-12-13T20:24:33.719Z,99103.65
2022-12-13T20:25:36.228Z,99116.36
2022-12-13T20:26:40.561Z,99112.98
2022-12-13T20:27:42.541Z,99104.51
2022-12-13T20:28:46.445Z,99121.45
2022-12-13T20:29:49.519Z,99124.84
2022-12-13T20:30:52.468Z,99122.31
2022-12-13T20:31:54.209Z,99123.14
2022-12-13T20:32:57.603Z,99111.27
2022-12-13T20:34:02.952Z,99129.08
2022-12-13T20:35:06.846Z,99114.67
2022-12-13T20:36:24.182Z,99125.69
2022-12-13T20:37:20.575Z,99126.53
2022-12-13T20:38:23.663Z,99123.99
2022-12-13T20:39:27.855Z,99106.17
2022-12-13T20:40:29.983Z,99106.17
2022-12-13T20:41:34.304Z,99118.06
2022-12-13T20:42:37.411Z,99128.23
2022-12-13T20:43:41.015Z,99124.83
2022-12-13T20:44:44.242Z,99122.30
2022-12-13T20:45:46.161Z,99125.68
2022-12-13T20:46:50.840Z,99127.38
2022-12-13T20:47:55.361Z,99119.77
2022-12-13T20:48:59.895Z,99129.08
2022-12-13T20:50:01.711Z,99135.04
2022-12-13T20:51:06.803Z,99135.86
2022-12-13T20:52:15.351Z,99128.25
2022-12-13T20:53:18.514Z,99136.72
2022-12-13T20:54:26.062Z,99132.47
2022-12-13T20:55:28.458Z,99126.55
2022-12-13T20:56:34.261Z,99135.88
2022-12-13T20:57:36.656Z,99140.11
2022-12-13T20:58:40.403Z,99139.25
2022-12-13T20:59:43.859Z,99138.38
2022-12-13T21:00:47.673Z,99144.33
2022-12-13T21:01:50.267Z,99135.00
2022-12-13T21:02:52.452Z,99131.63
2022-12-13T21:03:56.376Z,99142.63
2022-12-13T21:04:58.720Z,99138.38
2022-12-13T21:06:01.015Z,99137.53
2022-12-13T21:07:03.037Z,99150.23
2022-12-13T21:08:06.856Z,99146.84
2022-12-13T21:09:10.541Z,99151.06
2022-12-13T21:10:13.910Z,99141.76
2022-12-13T21:11:18.869Z,99171.45
2022-12-13T21:12:21.690Z,99155.32
2022-12-13T21:13:24.392Z,99143.44
2022-12-13T21:14:28.203Z,99146.81
2022-12-13T21:15:29.953Z,99164.61
2022-12-13T21:16:35.082Z,99154.44
2022-12-13T21:17:37.601Z,99145.11
2022-12-13T21:18:39.852Z,99141.75
2022-12-13T21:19:41.667Z,99144.27
2022-12-13T21:20:46.560Z,99148.55
2022-12-13T21:21:49.413Z,99155.28
2022-12-13T21:22:51.606Z,99151.09
2022-12-13T21:23:54.921Z,99140.05
2022-12-13T21:24:56.774Z,99162.09
2022-12-13T21:25:59.631Z,99146.81
2022-12-13T21:27:04.817Z,99149.36
2022-12-13T21:28:06.792Z,99144.37
2022-12-13T21:29:10.202Z,99144.37
2022-12-13T21:30:14.456Z,99157.09
2022-12-13T21:31:18.571Z,99152.00
2022-12-13T21:32:21.148Z,99163.03
2022-12-13T21:33:22.930Z,99156.21
2022-12-13T21:34:25.281Z,99155.34
2022-12-13T21:35:28.075Z,99155.35
2022-12-13T21:36:36.934Z,99167.27
2022-12-13T21:37:39.166Z,99162.19
2022-12-13T21:38:41.779Z,99163.02
2022-12-13T21:39:44.604Z,99157.05
2022-12-13T21:40:50.796Z,99168.89
2022-12-13T21:41:53.037Z,99145.18
2022-12-13T21:42:54.812Z,99146.86
2022-12-13T21:43:57.745Z,99157.84
2022-12-13T21:45:02.321Z,99140.93
2022-12-13T21:46:11.037Z,99156.23
2022-12-13T21:47:13.987Z,99149.39
2022-12-13T21:48:16.985Z,99156.16
2022-12-13T21:49:18.954Z,99154.45
2022-12-13T21:50:24.949Z,99149.38
2022-12-13T21:51:29.355Z,99154.48
2022-12-13T21:52:32.956Z,99149.34
2022-12-13T21:53:37.838Z,99158.69
2022-12-13T21:54:43.844Z,99143.39
2022-12-13T21:55:45.806Z,99156.11
2022-12-13T21:56:50.495Z,99151.85
2022-12-13T21:57:57.078Z,99151.03
2022-12-13T21:59:00.164Z,99152.71
2022-12-13T22:00:02.335Z,99147.63
2022-12-13T22:01:04.254Z,99152.75
2022-12-13T22:02:16.958Z,99159.55
2022-12-13T22:03:20.842Z,99159.48
2022-12-13T22:04:24.192Z,99162.87
2022-12-13T22:05:27.430Z,99166.25
2022-12-13T22:06:29.230Z,99167.11
2022-12-13T22:07:34.568Z,99165.44
2022-12-13T22:08:36.745Z,99160.36
2022-12-13T22:09:39.546Z,99191.70
2022-12-13T22:10:45.734Z,99173.03
2022-12-13T22:11:47.958Z,99170.48
2022-12-13T22:12:50.409Z,99176.38
2022-12-13T22:13:52.480Z,99176.38
2022-12-13T22:14:55.150Z,99175.56
2022-12-13T22:15:57.891Z,99181.52
2022-12-13T22:17:04.464Z,99177.32
2022-12-13T22:18:15.271Z,99180.73
2022-12-13T22:19:18.212Z,99185.80
2022-12-13T22:20:20.118Z,99188.34
2022-12-13T22:21:23.449Z,99184.93
2022-12-13T22:22:25.318Z,99184.89
2022-12-13T22:23:27.595Z,99190.78
2022-12-13T22:24:33.292Z,99184.03
2022-12-13T22:25:38.982Z,99192.52
2022-12-13T22:26:41.543Z,99182.39
2022-12-13T22:27:43.699Z,99188.36
2022-12-13T22:28:45.603Z,99182.42
2022-12-13T22:29:48.430Z,99184.99
2022-12-13T22:30:53.479Z,99182.48
2022-12-13T22:31:56.412Z,99192.68
2022-12-13T22:32:58.379Z,99185.86
2022-12-13T22:34:00.082Z,99190.12
2022-12-13T22:35:02.006Z,99201.15
2022-12-13T22:36:03.964Z,99193.53
2022-12-13T22:37:06.219Z,99195.20
2022-12-13T22:38:07.911Z,99195.22
2022-12-13T22:39:21.897Z,99196.03
2022-12-13T22:40:23.815Z,99199.45
2022-12-13T22:41:26.404Z,99193.49
2022-12-13T22:42:28.086Z,99193.50
2022-12-13T22:43:34.343Z,99192.66
2022-12-13T22:44:36.156Z,99199.42
2022-12-13T22:45:38.053Z,99202.81
2022-12-13T22:46:41.870Z,99190.94
2022-12-13T22:47:43.778Z,99196.05
2022-12-13T22:48:45.917Z,99184.20
2022-12-13T22:49:48.911Z,99190.16
2022-12-13T22:51:04.358Z,99199.47
2022-12-13T22:52:07.653Z,99197.75
2022-12-13T22:53:10.308Z,99195.19
2022-12-13T22:54:12.293Z,99193.52
2022-12-13T22:55:13.919Z,99192.68
2022-12-13T22:56:19.184Z,99201.17
2022-12-13T22:57:20.996Z,99201.17
2022-12-13T22:58:23.581Z,99203.74
2022-12-13T22:59:26.654Z,99196.06
2022-12-13T23:00:29.267Z,99196.06
2022-12-13T23:01:33.549Z,99203.72
2022-12-13T23:02:36.673Z,99197.75
2022-12-13T23:03:40.631Z,99201.99
2022-12-13T23:04:43.575Z,99200.30
2022-12-13T23:05:45.285Z,99210.45
2022-12-13T23:06:47.144Z,99204.48
2022-12-13T23:07:49.304Z,99207.86
2022-12-13T23:08:54.109Z,99218.03
2022-12-13T23:09:56.954Z,99198.52
2022-12-13T23:11:00.121Z,99201.95
2022-12-13T23:12:12.371Z,99211.29
2022-12-13T23:13:19.168Z,99199.42
2022-12-13T23:14:31.152Z,99213.81